sensor_id;sensor_type;location;lat;lon;timestamp;temperature;humidity
9305;DHT22;4690;52.422;13.486;2023-09-18T00:13:01;17.90;99.90
9305;DHT22;4690;52.422;13.486;2023-09-18T00:15:27;17.90;99.90
9305;DHT22;4690;52.422;13.486;2023-09-18T00:17:53;17.80;99.90
9305;DHT22;4690;52.422;13.486;2023-09-18T00:20:19;17.80;99.90
9305;DHT22;4690;52.422;13.486;2023-09-18T00:22:45;17.80;99.90
9305;DHT22;4690;52.422;13.486;2023-09-18T00:25:12;17.80;99.90
9305;DHT22;4690;52.422;13.486;2023-09-18T00:27:39;17.80;99.90
9305;DHT22;4690;52.422;13.486;2023-09-18T00:30:05;17.80;99.90
9305;DHT22;4690;52.422;13.486;2023-09-18T00:32:32;17.80;99.90
9305;DHT22;4690;52.422;13.486;2023-09-18T00:34:58;17.80;99.90
9305;DHT22;4690;52.422;13.486;2023-09-18T00:37:23;17.70;99.90
9305;DHT22;4690;52.422;13.486;2023-09-18T00:39:50;17.70;99.90
9305;DHT22;4690;52.422;13.486;2023-09-18T00:42:15;17.70;99.90
9305;DHT22;4690;52.422;13.486;2023-09-18T00:44:43;17.70;99.90
9305;DHT22;4690;52.422;13.486;2023-09-18T00:47:10;17.70;99.90
9305;DHT22;4690;52.422;13.486;2023-09-18T00:49:39;17.70;99.90
9305;DHT22;4690;52.422;13.486;2023-09-18T00:52:08;17.70;99.90
9305;DHT22;4690;52.422;13.486;2023-09-18T00:54:37;17.60;99.90
9305;DHT22;4690;52.422;13.486;2023-09-18T00:57:05;17.60;99.90
9305;DHT22;4690;52.422;13.486;2023-09-18T00:59:31;17.60;99.90
9305;DHT22;4690;52.422;13.486;2023-09-18T01:01:59;17.60;99.90
9305;DHT22;4690;52.422;13.486;2023-09-18T01:04:25;17.60;99.90
9305;DHT22;4690;52.422;13.486;2023-09-18T01:06:54;17.50;99.90
9305;DHT22;4690;52.422;13.486;2023-09-18T01:09:22;17.60;99.90
9305;DHT22;4690;52.422;13.486;2023-09-18T01:12:06;17.60;99.90
9305;DHT22;4690;52.422;13.486;2023-09-18T01:17:22;17.50;99.90
9305;DHT22;4690;52.422;13.486;2023-09-18T01:19:49;17.50;99.90
9305;DHT22;4690;52.422;13.486;2023-09-18T01:22:19;17.50;99.90
9305;DHT22;4690;52.422;13.486;2023-09-18T01:24:46;17.50;99.90
9305;DHT22;4690;52.422;13.486;2023-09-18T01:27:13;17.50;99.90
9305;DHT22;4690;52.422;13.486;2023-09-18T01:29:45;17.40;99.90
9305;DHT22;4690;52.422;13.486;2023-09-18T01:32:12;17.40;99.90
9305;DHT22;4690;52.422;13.486;2023-09-18T01:34:46;17.40;99.90
9305;DHT22;4690;52.422;13.486;2023-09-18T01:37:20;17.40;99.90
9305;DHT22;4690;52.422;13.486;2023-09-18T01:39:50;17.30;99.90
9305;DHT22;4690;52.422;13.486;2023-09-18T01:42:17;17.30;99.90
9305;DHT22;4690;52.422;13.486;2023-09-18T01:44:44;17.30;99.90
9305;DHT22;4690;52.422;13.486;2023-09-18T01:47:16;17.30;99.90
9305;DHT22;4690;52.422;13.486;2023-09-18T01:49:44;17.30;99.90
9305;DHT22;4690;52.422;13.486;2023-09-18T01:52:11;17.30;99.90
9305;DHT22;4690;52.422;13.486;2023-09-18T01:54:37;17.20;99.90
9305;DHT22;4690;52.422;13.486;2023-09-18T01:57:04;17.20;99.90
9305;DHT22;4690;52.422;13.486;2023-09-18T01:59:30;17.20;99.90
9305;DHT22;4690;52.422;13.486;2023-09-18T02:01:56;17.10;99.90
9305;DHT22;4690;52.422;13.486;2023-09-18T02:04:22;17.10;99.90
9305;DHT22;4690;52.422;13.486;2023-09-18T02:06:50;17.10;99.90
9305;DHT22;4690;52.422;13.486;2023-09-18T02:09:16;17.10;99.90
9305;DHT22;4690;52.422;13.486;2023-09-18T02:11:44;17.00;99.90
9305;DHT22;4690;52.422;13.486;2023-09-18T02:14:12;17.00;99.90
9305;DHT22;4690;52.422;13.486;2023-09-18T02:16:40;17.00;99.90
9305;DHT22;4690;52.422;13.486;2023-09-18T02:19:09;17.00;99.90
9305;DHT22;4690;52.422;13.486;2023-09-18T02:21:37;16.90;99.90
9305;DHT22;4690;52.422;13.486;2023-09-18T02:24:03;17.00;99.90
9305;DHT22;4690;52.422;13.486;2023-09-18T02:26:29;17.00;99.90
9305;DHT22;4690;52.422;13.486;2023-09-18T02:29:00;17.00;99.90
9305;DHT22;4690;52.422;13.486;2023-09-18T02:31:28;17.10;99.90
9305;DHT22;4690;52.422;13.486;2023-09-18T02:33:53;17.10;99.90
9305;DHT22;4690;52.422;13.486;2023-09-18T02:36:19;17.10;99.90
9305;DHT22;4690;52.422;13.486;2023-09-18T02:38:45;17.10;99.90
9305;DHT22;4690;52.422;13.486;2023-09-18T02:41:11;17.10;99.90
9305;DHT22;4690;52.422;13.486;2023-09-18T02:43:36;17.10;99.90
9305;DHT22;4690;52.422;13.486;2023-09-18T02:46:04;17.10;99.90
9305;DHT22;4690;52.422;13.486;2023-09-18T02:48:33;17.10;99.90
9305;DHT22;4690;52.422;13.486;2023-09-18T02:50:59;17.10;99.90
9305;DHT22;4690;52.422;13.486;2023-09-18T02:53:26;17.00;99.90
9305;DHT22;4690;52.422;13.486;2023-09-18T02:55:53;17.00;99.90
9305;DHT22;4690;52.422;13.486;2023-09-18T02:58:20;17.00;99.90
9305;DHT22;4690;52.422;13.486;2023-09-18T03:00:48;16.90;99.90
9305;DHT22;4690;52.422;13.486;2023-09-18T03:03:15;16.90;99.90
9305;DHT22;4690;52.422;13.486;2023-09-18T03:05:43;16.80;99.90
9305;DHT22;4690;52.422;13.486;2023-09-18T03:08:13;16.90;99.90
9305;DHT22;4690;52.422;13.486;2023-09-18T03:10:41;16.80;99.90
9305;DHT22;4690;52.422;13.486;2023-09-18T03:13:09;16.80;99.90
9305;DHT22;4690;52.422;13.486;2023-09-18T03:15:35;16.80;99.90
9305;DHT22;4690;52.422;13.486;2023-09-18T03:18:03;16.80;99.90
9305;DHT22;4690;52.422;13.486;2023-09-18T03:20:32;16.80;99.90
9305;DHT22;4690;52.422;13.486;2023-09-18T03:23:00;16.80;99.90
9305;DHT22;4690;52.422;13.486;2023-09-18T03:25:28;16.70;99.90
9305;DHT22;4690;52.422;13.486;2023-09-18T03:27:55;16.70;99.90
9305;DHT22;4690;52.422;13.486;2023-09-18T03:30:23;16.70;99.90
9305;DHT22;4690;52.422;13.486;2023-09-18T03:32:50;16.70;99.90
9305;DHT22;4690;52.422;13.486;2023-09-18T03:35:16;16.70;99.90
9305;DHT22;4690;52.422;13.486;2023-09-18T03:40:13;16.70;99.90
9305;DHT22;4690;52.422;13.486;2023-09-18T03:42:39;16.60;99.90
9305;DHT22;4690;52.422;13.486;2023-09-18T03:45:06;16.60;99.90
9305;DHT22;4690;52.422;13.486;2023-09-18T03:47:35;16.60;99.90
9305;DHT22;4690;52.422;13.486;2023-09-18T03:50:03;16.60;99.90
9305;DHT22;4690;52.422;13.486;2023-09-18T03:52:29;16.50;99.90
9305;DHT22;4690;52.422;13.486;2023-09-18T03:54:55;16.60;99.90
9305;DHT22;4690;52.422;13.486;2023-09-18T03:57:21;16.50;99.90
9305;DHT22;4690;52.422;13.486;2023-09-18T03:59:46;16.50;99.90
9305;DHT22;4690;52.422;13.486;2023-09-18T04:02:12;16.40;99.90
9305;DHT22;4690;52.422;13.486;2023-09-18T04:04:38;16.50;99.90
9305;DHT22;4690;52.422;13.486;2023-09-18T04:07:07;16.40;99.90
9305;DHT22;4690;52.422;13.486;2023-09-18T04:09:34;16.30;99.90
9305;DHT22;4690;52.422;13.486;2023-09-18T04:12:01;16.30;99.90
9305;DHT22;4690;52.422;13.486;2023-09-18T04:14:27;16.30;99.90
9305;DHT22;4690;52.422;13.486;2023-09-18T04:16:53;16.30;99.90
9305;DHT22;4690;52.422;13.486;2023-09-18T04:19:18;16.30;99.90
9305;DHT22;4690;52.422;13.486;2023-09-18T04:21:44;16.20;99.90
9305;DHT22;4690;52.422;13.486;2023-09-18T04:24:10;16.20;99.90
9305;DHT22;4690;52.422;13.486;2023-09-18T04:26:37;16.20;99.90
9305;DHT22;4690;52.422;13.486;2023-09-18T04:29:05;16.20;99.90
9305;DHT22;4690;52.422;13.486;2023-09-18T04:31:31;16.20;99.90
9305;DHT22;4690;52.422;13.486;2023-09-18T04:33:57;16.10;99.90
9305;DHT22;4690;52.422;13.486;2023-09-18T04:36:23;16.10;99.90
9305;DHT22;4690;52.422;13.486;2023-09-18T04:38:50;16.10;99.90
9305;DHT22;4690;52.422;13.486;2023-09-18T04:41:16;16.10;99.90
9305;DHT22;4690;52.422;13.486;2023-09-18T04:43:42;16.10;99.90
9305;DHT22;4690;52.422;13.486;2023-09-18T04:46:08;16.10;99.90
9305;DHT22;4690;52.422;13.486;2023-09-18T04:48:34;16.10;99.90
9305;DHT22;4690;52.422;13.486;2023-09-18T04:51:00;16.10;99.90
9305;DHT22;4690;52.422;13.486;2023-09-18T04:53:29;16.10;99.90
9305;DHT22;4690;52.422;13.486;2023-09-18T04:55:55;16.10;99.90
9305;DHT22;4690;52.422;13.486;2023-09-18T04:58:21;16.00;99.90
9305;DHT22;4690;52.422;13.486;2023-09-18T05:00:53;16.00;99.90
9305;DHT22;4690;52.422;13.486;2023-09-18T05:03:20;16.00;99.90
9305;DHT22;4690;52.422;13.486;2023-09-18T05:05:47;16.00;99.90
9305;DHT22;4690;52.422;13.486;2023-09-18T05:08:12;16.00;99.90
9305;DHT22;4690;52.422;13.486;2023-09-18T05:10:38;16.00;99.90
9305;DHT22;4690;52.422;13.486;2023-09-18T05:13:04;16.00;99.90
9305;DHT22;4690;52.422;13.486;2023-09-18T05:15:30;16.00;99.90
9305;DHT22;4690;52.422;13.486;2023-09-18T05:17:57;16.10;99.90
9305;DHT22;4690;52.422;13.486;2023-09-18T05:20:25;16.20;99.90
9305;DHT22;4690;52.422;13.486;2023-09-18T05:22:54;16.20;99.90
9305;DHT22;4690;52.422;13.486;2023-09-18T05:25:22;16.30;99.90
9305;DHT22;4690;52.422;13.486;2023-09-18T05:28:00;16.50;99.90
9305;DHT22;4690;52.422;13.486;2023-09-18T05:30:28;16.60;99.90
9305;DHT22;4690;52.422;13.486;2023-09-18T05:32:58;16.60;99.90
9305;DHT22;4690;52.422;13.486;2023-09-18T05:35:39;16.80;99.90
9305;DHT22;4690;52.422;13.486;2023-09-18T05:38:07;16.90;99.90
9305;DHT22;4690;52.422;13.486;2023-09-18T05:40:35;17.00;99.90
9305;DHT22;4690;52.422;13.486;2023-09-18T05:43:00;17.20;99.90
9305;DHT22;4690;52.422;13.486;2023-09-18T05:45:26;17.30;99.90
9305;DHT22;4690;52.422;13.486;2023-09-18T05:47:53;17.40;99.90
9305;DHT22;4690;52.422;13.486;2023-09-18T05:50:19;17.60;99.90
9305;DHT22;4690;52.422;13.486;2023-09-18T05:52:46;17.70;99.90
9305;DHT22;4690;52.422;13.486;2023-09-18T05:55:15;17.90;99.90
9305;DHT22;4690;52.422;13.486;2023-09-18T05:57:40;18.00;99.90
9305;DHT22;4690;52.422;13.486;2023-09-18T06:00:07;18.20;99.90
9305;DHT22;4690;52.422;13.486;2023-09-18T06:02:33;18.30;99.90
9305;DHT22;4690;52.422;13.486;2023-09-18T06:05:00;18.30;99.90
9305;DHT22;4690;52.422;13.486;2023-09-18T06:07:28;18.40;99.90
9305;DHT22;4690;52.422;13.486;2023-09-18T06:09:57;18.40;99.90
9305;DHT22;4690;52.422;13.486;2023-09-18T06:12:23;18.50;99.90
9305;DHT22;4690;52.422;13.486;2023-09-18T06:14:50;18.50;99.90
9305;DHT22;4690;52.422;13.486;2023-09-18T06:17:16;18.60;99.90
9305;DHT22;4690;52.422;13.486;2023-09-18T06:19:43;18.70;99.90
9305;DHT22;4690;52.422;13.486;2023-09-18T06:22:09;18.80;99.90
9305;DHT22;4690;52.422;13.486;2023-09-18T06:24:36;18.80;99.90
9305;DHT22;4690;52.422;13.486;2023-09-18T06:27:03;19.00;99.90
9305;DHT22;4690;52.422;13.486;2023-09-18T06:29:33;19.20;99.90
9305;DHT22;4690;52.422;13.486;2023-09-18T06:32:00;19.40;99.90
9305;DHT22;4690;52.422;13.486;2023-09-18T06:34:26;19.50;99.90
9305;DHT22;4690;52.422;13.486;2023-09-18T06:36:54;19.70;99.90
9305;DHT22;4690;52.422;13.486;2023-09-18T06:39:19;20.00;99.90
9305;DHT22;4690;52.422;13.486;2023-09-18T06:41:49;20.10;99.90
9305;DHT22;4690;52.422;13.486;2023-09-18T06:44:15;20.20;99.90
9305;DHT22;4690;52.422;13.486;2023-09-18T06:46:41;20.30;99.90
9305;DHT22;4690;52.422;13.486;2023-09-18T06:49:07;20.50;99.90
9305;DHT22;4690;52.422;13.486;2023-09-18T06:51:32;20.50;99.90
9305;DHT22;4690;52.422;13.486;2023-09-18T06:53:58;20.60;99.90
9305;DHT22;4690;52.422;13.486;2023-09-18T06:56:25;20.70;99.90
9305;DHT22;4690;52.422;13.486;2023-09-18T06:58:51;20.60;99.90
9305;DHT22;4690;52.422;13.486;2023-09-18T07:01:19;20.60;99.90
9305;DHT22;4690;52.422;13.486;2023-09-18T07:03:46;20.90;99.90
9305;DHT22;4690;52.422;13.486;2023-09-18T07:06:16;20.90;99.90
9305;DHT22;4690;52.422;13.486;2023-09-18T07:08:45;21.00;99.90
9305;DHT22;4690;52.422;13.486;2023-09-18T07:11:14;21.20;99.90
9305;DHT22;4690;52.422;13.486;2023-09-18T07:13:41;21.30;99.90
9305;DHT22;4690;52.422;13.486;2023-09-18T07:16:08;21.30;99.90
9305;DHT22;4690;52.422;13.486;2023-09-18T07:18:35;21.40;99.90
9305;DHT22;4690;52.422;13.486;2023-09-18T07:21:00;21.50;99.90
9305;DHT22;4690;52.422;13.486;2023-09-18T07:23:26;21.50;99.90
9305;DHT22;4690;52.422;13.486;2023-09-18T07:25:53;21.60;99.90
9305;DHT22;4690;52.422;13.486;2023-09-18T07:28:19;21.80;99.90
9305;DHT22;4690;52.422;13.486;2023-09-18T07:30:45;21.90;99.90
9305;DHT22;4690;52.422;13.486;2023-09-18T07:33:13;22.10;99.90
9305;DHT22;4690;52.422;13.486;2023-09-18T07:35:46;22.20;99.90
9305;DHT22;4690;52.422;13.486;2023-09-18T07:38:13;22.20;99.90
9305;DHT22;4690;52.422;13.486;2023-09-18T07:40:39;22.40;99.90
9305;DHT22;4690;52.422;13.486;2023-09-18T07:43:05;22.60;99.90
9305;DHT22;4690;52.422;13.486;2023-09-18T07:45:31;22.60;99.90
9305;DHT22;4690;52.422;13.486;2023-09-18T07:47:56;22.70;99.90
9305;DHT22;4690;52.422;13.486;2023-09-18T07:50:22;22.70;99.90
9305;DHT22;4690;52.422;13.486;2023-09-18T07:52:48;22.80;99.90
9305;DHT22;4690;52.422;13.486;2023-09-18T07:55:14;22.80;99.90
9305;DHT22;4690;52.422;13.486;2023-09-18T07:57:40;22.80;99.90
9305;DHT22;4690;52.422;13.486;2023-09-18T08:00:06;22.90;99.90
9305;DHT22;4690;52.422;13.486;2023-09-18T08:02:38;23.00;99.90
9305;DHT22;4690;52.422;13.486;2023-09-18T08:05:05;23.20;99.90
9305;DHT22;4690;52.422;13.486;2023-09-18T08:07:31;23.30;99.90
9305;DHT22;4690;52.422;13.486;2023-09-18T08:09:57;23.30;99.90
9305;DHT22;4690;52.422;13.486;2023-09-18T08:12:23;23.50;99.90
9305;DHT22;4690;52.422;13.486;2023-09-18T08:14:49;23.60;99.90
9305;DHT22;4690;52.422;13.486;2023-09-18T08:17:16;23.80;99.90
9305;DHT22;4690;52.422;13.486;2023-09-18T08:19:43;23.90;99.90
9305;DHT22;4690;52.422;13.486;2023-09-18T08:22:09;24.00;99.90
9305;DHT22;4690;52.422;13.486;2023-09-18T08:24:40;24.10;99.90
9305;DHT22;4690;52.422;13.486;2023-09-18T08:27:06;24.20;99.90
9305;DHT22;4690;52.422;13.486;2023-09-18T08:29:32;24.20;99.90
9305;DHT22;4690;52.422;13.486;2023-09-18T08:31:58;24.30;99.90
9305;DHT22;4690;52.422;13.486;2023-09-18T08:34:23;24.30;99.90
9305;DHT22;4690;52.422;13.486;2023-09-18T08:36:49;24.50;99.90
9305;DHT22;4690;52.422;13.486;2023-09-18T08:39:15;24.50;99.90
9305;DHT22;4690;52.422;13.486;2023-09-18T08:41:42;24.60;99.90
9305;DHT22;4690;52.422;13.486;2023-09-18T08:44:09;24.70;99.90
9305;DHT22;4690;52.422;13.486;2023-09-18T08:46:36;24.90;99.90
9305;DHT22;4690;52.422;13.486;2023-09-18T08:49:04;24.80;99.90
9305;DHT22;4690;52.422;13.486;2023-09-18T08:51:33;24.60;99.90
9305;DHT22;4690;52.422;13.486;2023-09-18T08:54:00;24.80;99.90
9305;DHT22;4690;52.422;13.486;2023-09-18T08:56:29;25.00;99.90
9305;DHT22;4690;52.422;13.486;2023-09-18T08:58:56;25.10;99.90
9305;DHT22;4690;52.422;13.486;2023-09-18T09:01:23;25.20;99.90
9305;DHT22;4690;52.422;13.486;2023-09-18T09:03:49;25.30;99.90
9305;DHT22;4690;52.422;13.486;2023-09-18T09:06:15;25.20;99.90
9305;DHT22;4690;52.422;13.486;2023-09-18T09:08:42;25.20;99.90
9305;DHT22;4690;52.422;13.486;2023-09-18T09:11:08;25.20;99.90
9305;DHT22;4690;52.422;13.486;2023-09-18T09:13:34;25.20;99.90
9305;DHT22;4690;52.422;13.486;2023-09-18T09:16:00;25.20;99.90
9305;DHT22;4690;52.422;13.486;2023-09-18T09:18:27;25.20;99.90
9305;DHT22;4690;52.422;13.486;2023-09-18T09:21:00;25.10;99.90
9305;DHT22;4690;52.422;13.486;2023-09-18T09:23:45;25.10;99.90
9305;DHT22;4690;52.422;13.486;2023-09-18T09:26:20;25.10;99.90
9305;DHT22;4690;52.422;13.486;2023-09-18T09:28:47;25.20;99.90
9305;DHT22;4690;52.422;13.486;2023-09-18T09:31:29;25.20;99.90
9305;DHT22;4690;52.422;13.486;2023-09-18T09:33:56;25.30;99.90
9305;DHT22;4690;52.422;13.486;2023-09-18T09:36:23;25.20;99.90
9305;DHT22;4690;52.422;13.486;2023-09-18T09:38:55;25.20;99.90
9305;DHT22;4690;52.422;13.486;2023-09-18T09:41:23;25.20;99.90
9305;DHT22;4690;52.422;13.486;2023-09-18T09:43:51;25.20;99.90
9305;DHT22;4690;52.422;13.486;2023-09-18T09:46:17;25.30;99.90
9305;DHT22;4690;52.422;13.486;2023-09-18T09:49:04;25.40;99.90
9305;DHT22;4690;52.422;13.486;2023-09-18T09:51:31;25.40;99.90
9305;DHT22;4690;52.422;13.486;2023-09-18T09:53:58;25.50;99.90
9305;DHT22;4690;52.422;13.486;2023-09-18T09:56:48;25.50;99.90
9305;DHT22;4690;52.422;13.486;2023-09-18T09:59:19;25.50;99.90
9305;DHT22;4690;52.422;13.486;2023-09-18T10:01:48;25.60;99.90
9305;DHT22;4690;52.422;13.486;2023-09-18T10:04:17;25.60;99.90
9305;DHT22;4690;52.422;13.486;2023-09-18T10:06:51;25.60;99.90
9305;DHT22;4690;52.422;13.486;2023-09-18T10:09:20;25.50;99.90
9305;DHT22;4690;52.422;13.486;2023-09-18T10:11:52;25.50;99.90
9305;DHT22;4690;52.422;13.486;2023-09-18T10:14:28;25.50;99.90
9305;DHT22;4690;52.422;13.486;2023-09-18T10:17:00;25.40;99.90
9305;DHT22;4690;52.422;13.486;2023-09-18T10:22:41;25.40;99.90
9305;DHT22;4690;52.422;13.486;2023-09-18T10:25:20;25.40;99.90
9305;DHT22;4690;52.422;13.486;2023-09-18T10:27:50;25.50;99.90
9305;DHT22;4690;52.422;13.486;2023-09-18T10:30:19;25.40;99.90
9305;DHT22;4690;52.422;13.486;2023-09-18T10:32:50;25.40;99.90
9305;DHT22;4690;52.422;13.486;2023-09-18T10:35:17;25.40;99.90
9305;DHT22;4690;52.422;13.486;2023-09-18T10:37:46;25.40;99.90
9305;DHT22;4690;52.422;13.486;2023-09-18T10:40:17;25.30;99.90
9305;DHT22;4690;52.422;13.486;2023-09-18T10:42:44;25.20;99.90
9305;DHT22;4690;52.422;13.486;2023-09-18T10:45:12;25.30;99.90
9305;DHT22;4690;52.422;13.486;2023-09-18T10:47:48;25.30;99.90
9305;DHT22;4690;52.422;13.486;2023-09-18T10:50:25;25.40;99.90
9305;DHT22;4690;52.422;13.486;2023-09-18T10:52:52;25.50;99.90
9305;DHT22;4690;52.422;13.486;2023-09-18T10:55:18;25.70;99.90
9305;DHT22;4690;52.422;13.486;2023-09-18T10:57:54;25.70;99.90
9305;DHT22;4690;52.422;13.486;2023-09-18T11:00:25;25.80;99.90
9305;DHT22;4690;52.422;13.486;2023-09-18T11:02:53;25.90;99.90
9305;DHT22;4690;52.422;13.486;2023-09-18T11:05:33;25.80;99.90
9305;DHT22;4690;52.422;13.486;2023-09-18T11:08:28;25.80;99.90
9305;DHT22;4690;52.422;13.486;2023-09-18T11:11:10;25.70;99.90
9305;DHT22;4690;52.422;13.486;2023-09-18T11:13:50;25.60;99.90
9305;DHT22;4690;52.422;13.486;2023-09-18T11:19:08;25.50;99.90
9305;DHT22;4690;52.422;13.486;2023-09-18T11:21:36;25.40;99.90
9305;DHT22;4690;52.422;13.486;2023-09-18T11:24:07;25.40;99.90
9305;DHT22;4690;52.422;13.486;2023-09-18T11:26:42;25.30;99.90
9305;DHT22;4690;52.422;13.486;2023-09-18T11:29:15;25.30;99.90
9305;DHT22;4690;52.422;13.486;2023-09-18T11:31:48;25.20;99.90
9305;DHT22;4690;52.422;13.486;2023-09-18T11:34:26;25.20;99.90
9305;DHT22;4690;52.422;13.486;2023-09-18T11:36:57;25.20;99.90
9305;DHT22;4690;52.422;13.486;2023-09-18T11:39:40;25.10;99.90
9305;DHT22;4690;52.422;13.486;2023-09-18T11:42:07;25.10;99.90
9305;DHT22;4690;52.422;13.486;2023-09-18T11:44:35;25.10;99.90
9305;DHT22;4690;52.422;13.486;2023-09-18T11:47:07;25.10;99.90
9305;DHT22;4690;52.422;13.486;2023-09-18T11:49:39;25.10;99.90
9305;DHT22;4690;52.422;13.486;2023-09-18T11:52:09;25.10;99.90
9305;DHT22;4690;52.422;13.486;2023-09-18T11:54:36;25.10;99.90
9305;DHT22;4690;52.422;13.486;2023-09-18T11:57:05;25.10;99.90
9305;DHT22;4690;52.422;13.486;2023-09-18T11:59:39;25.10;99.90
9305;DHT22;4690;52.422;13.486;2023-09-18T12:02:08;25.10;99.90
9305;DHT22;4690;52.422;13.486;2023-09-18T12:04:46;25.00;99.90
9305;DHT22;4690;52.422;13.486;2023-09-18T12:07:13;24.90;99.90
9305;DHT22;4690;52.422;13.486;2023-09-18T12:09:40;25.00;99.90
9305;DHT22;4690;52.422;13.486;2023-09-18T12:12:09;25.00;99.90
9305;DHT22;4690;52.422;13.486;2023-09-18T12:14:36;25.00;99.90
9305;DHT22;4690;52.422;13.486;2023-09-18T12:17:03;25.20;99.90
9305;DHT22;4690;52.422;13.486;2023-09-18T12:19:30;25.30;99.90
9305;DHT22;4690;52.422;13.486;2023-09-18T12:21:56;25.50;99.90
9305;DHT22;4690;52.422;13.486;2023-09-18T12:24:25;25.70;99.90
9305;DHT22;4690;52.422;13.486;2023-09-18T12:26:53;25.90;99.90
9305;DHT22;4690;52.422;13.486;2023-09-18T12:29:23;25.90;99.90
9305;DHT22;4690;52.422;13.486;2023-09-18T12:31:49;26.00;99.90
9305;DHT22;4690;52.422;13.486;2023-09-18T12:34:20;25.90;99.90
9305;DHT22;4690;52.422;13.486;2023-09-18T12:36:47;25.80;99.90
9305;DHT22;4690;52.422;13.486;2023-09-18T12:39:14;25.80;99.90
9305;DHT22;4690;52.422;13.486;2023-09-18T12:41:47;25.70;99.90
9305;DHT22;4690;52.422;13.486;2023-09-18T12:44:13;25.70;99.90
9305;DHT22;4690;52.422;13.486;2023-09-18T12:46:42;25.70;99.90
9305;DHT22;4690;52.422;13.486;2023-09-18T12:49:19;25.70;99.90
9305;DHT22;4690;52.422;13.486;2023-09-18T12:51:57;25.70;99.90
9305;DHT22;4690;52.422;13.486;2023-09-18T12:54:44;25.70;99.90
9305;DHT22;4690;52.422;13.486;2023-09-18T12:57:20;25.70;99.90
9305;DHT22;4690;52.422;13.486;2023-09-18T12:59:46;25.70;99.90
9305;DHT22;4690;52.422;13.486;2023-09-18T13:02:17;25.70;99.90
9305;DHT22;4690;52.422;13.486;2023-09-18T13:04:52;25.60;99.90
9305;DHT22;4690;52.422;13.486;2023-09-18T13:07:18;25.50;99.90
9305;DHT22;4690;52.422;13.486;2023-09-18T13:10:08;25.50;99.90
9305;DHT22;4690;52.422;13.486;2023-09-18T13:12:46;25.40;99.90
9305;DHT22;4690;52.422;13.486;2023-09-18T13:15:13;25.30;99.90
9305;DHT22;4690;52.422;13.486;2023-09-18T13:17:44;25.20;99.90
9305;DHT22;4690;52.422;13.486;2023-09-18T13:20:37;25.20;99.90
9305;DHT22;4690;52.422;13.486;2023-09-18T13:23:05;25.10;99.90
9305;DHT22;4690;52.422;13.486;2023-09-18T13:25:33;25.10;99.90
9305;DHT22;4690;52.422;13.486;2023-09-18T13:28:05;25.10;99.90
9305;DHT22;4690;52.422;13.486;2023-09-18T13:30:36;25.00;99.90
9305;DHT22;4690;52.422;13.486;2023-09-18T13:35:44;25.00;99.90
9305;DHT22;4690;52.422;13.486;2023-09-18T13:38:13;24.90;99.90
9305;DHT22;4690;52.422;13.486;2023-09-18T13:40:46;24.90;99.90
9305;DHT22;4690;52.422;13.486;2023-09-18T13:43:14;24.80;99.90
9305;DHT22;4690;52.422;13.486;2023-09-18T13:45:41;24.80;99.90
9305;DHT22;4690;52.422;13.486;2023-09-18T13:48:07;24.70;99.90
9305;DHT22;4690;52.422;13.486;2023-09-18T13:50:35;24.60;99.90
9305;DHT22;4690;52.422;13.486;2023-09-18T13:53:02;24.60;99.90
9305;DHT22;4690;52.422;13.486;2023-09-18T13:55:33;24.60;99.90
9305;DHT22;4690;52.422;13.486;2023-09-18T13:58:00;24.50;99.90
9305;DHT22;4690;52.422;13.486;2023-09-18T14:00:28;24.50;99.90
9305;DHT22;4690;52.422;13.486;2023-09-18T14:02:54;24.60;99.90
9305;DHT22;4690;52.422;13.486;2023-09-18T14:05:20;24.60;99.90
9305;DHT22;4690;52.422;13.486;2023-09-18T14:07:46;24.60;99.90
9305;DHT22;4690;52.422;13.486;2023-09-18T14:10:13;24.60;99.90
9305;DHT22;4690;52.422;13.486;2023-09-18T14:12:40;24.60;99.90
9305;DHT22;4690;52.422;13.486;2023-09-18T14:15:08;24.60;99.90
9305;DHT22;4690;52.422;13.486;2023-09-18T14:17:35;24.70;99.90
9305;DHT22;4690;52.422;13.486;2023-09-18T14:20:03;24.70;99.90
9305;DHT22;4690;52.422;13.486;2023-09-18T14:22:36;24.60;99.90
9305;DHT22;4690;52.422;13.486;2023-09-18T14:25:02;24.60;99.90
9305;DHT22;4690;52.422;13.486;2023-09-18T14:27:31;24.60;99.90
9305;DHT22;4690;52.422;13.486;2023-09-18T14:29:58;24.60;99.90
9305;DHT22;4690;52.422;13.486;2023-09-18T14:32:23;24.60;99.90
9305;DHT22;4690;52.422;13.486;2023-09-18T14:34:49;24.50;99.90
9305;DHT22;4690;52.422;13.486;2023-09-18T14:37:15;24.50;99.90
9305;DHT22;4690;52.422;13.486;2023-09-18T14:39:41;24.50;99.90
9305;DHT22;4690;52.422;13.486;2023-09-18T14:42:07;24.40;99.90
9305;DHT22;4690;52.422;13.486;2023-09-18T14:44:33;24.40;99.90
9305;DHT22;4690;52.422;13.486;2023-09-18T14:46:59;24.40;99.90
9305;DHT22;4690;52.422;13.486;2023-09-18T14:49:25;24.40;99.90
9305;DHT22;4690;52.422;13.486;2023-09-18T14:51:53;24.30;99.90
9305;DHT22;4690;52.422;13.486;2023-09-18T14:54:19;24.40;99.90
9305;DHT22;4690;52.422;13.486;2023-09-18T14:56:45;24.40;99.90
9305;DHT22;4690;52.422;13.486;2023-09-18T14:59:12;24.30;99.90
9305;DHT22;4690;52.422;13.486;2023-09-18T15:01:38;24.40;99.90
9305;DHT22;4690;52.422;13.486;2023-09-18T15:04:04;24.40;99.90
9305;DHT22;4690;52.422;13.486;2023-09-18T15:06:30;24.40;99.90
9305;DHT22;4690;52.422;13.486;2023-09-18T15:08:56;24.40;99.90
9305;DHT22;4690;52.422;13.486;2023-09-18T15:11:22;24.50;99.90
9305;DHT22;4690;52.422;13.486;2023-09-18T15:13:48;24.50;99.90
9305;DHT22;4690;52.422;13.486;2023-09-18T15:16:14;24.50;99.90
9305;DHT22;4690;52.422;13.486;2023-09-18T15:18:40;24.50;99.90
9305;DHT22;4690;52.422;13.486;2023-09-18T15:21:06;24.50;99.90
9305;DHT22;4690;52.422;13.486;2023-09-18T15:23:32;24.50;99.90
9305;DHT22;4690;52.422;13.486;2023-09-18T15:25:58;24.50;99.90
9305;DHT22;4690;52.422;13.486;2023-09-18T15:28:24;24.50;99.90
9305;DHT22;4690;52.422;13.486;2023-09-18T15:30:52;24.50;99.90
9305;DHT22;4690;52.422;13.486;2023-09-18T15:33:18;24.50;99.90
9305;DHT22;4690;52.422;13.486;2023-09-18T15:35:48;24.50;99.90
9305;DHT22;4690;52.422;13.486;2023-09-18T15:38:15;24.50;99.90
9305;DHT22;4690;52.422;13.486;2023-09-18T15:40:41;24.40;99.90
9305;DHT22;4690;52.422;13.486;2023-09-18T15:43:07;24.40;99.90
9305;DHT22;4690;52.422;13.486;2023-09-18T15:45:32;24.30;99.90
9305;DHT22;4690;52.422;13.486;2023-09-18T15:48:03;24.40;99.90
9305;DHT22;4690;52.422;13.486;2023-09-18T15:50:33;24.30;99.90
9305;DHT22;4690;52.422;13.486;2023-09-18T15:52:58;24.30;99.90
9305;DHT22;4690;52.422;13.486;2023-09-18T15:55:25;24.30;99.90
9305;DHT22;4690;52.422;13.486;2023-09-18T15:57:51;24.20;99.90
9305;DHT22;4690;52.422;13.486;2023-09-18T16:00:18;24.20;99.90
9305;DHT22;4690;52.422;13.486;2023-09-18T16:02:45;24.10;99.90
9305;DHT22;4690;52.422;13.486;2023-09-18T16:05:11;24.10;99.90
9305;DHT22;4690;52.422;13.486;2023-09-18T16:07:38;24.10;99.90
9305;DHT22;4690;52.422;13.486;2023-09-18T16:10:06;24.00;99.90
9305;DHT22;4690;52.422;13.486;2023-09-18T16:12:33;23.90;99.90
9305;DHT22;4690;52.422;13.486;2023-09-18T16:15:01;23.90;99.90
9305;DHT22;4690;52.422;13.486;2023-09-18T16:17:28;23.90;99.90